Time;durP1;ratioP1;P1;durP2;ratioP2;P2;SDS_P1;SDS_P2;PMS_P1;PMS_P2;Temp;Humidity;BMP_temperature;BMP_pressure;BME280_temperature;BME280_humidity;BME280_pressure;Samples;Min_cycle;Max_cycle;Signal;HPM_P1;HPM_P2
2023/08/14 00:02:04;;;;;;;11.50;3.40;;;14.80;99.90;;;;;;5022628;28;20504;-72
2023/08/14 00:04:30;;;;;;;3.92;3.10;;;14.80;99.90;;;;;;5019118;28;20034;-72
2023/08/14 00:06:55;;;;;;;5.10;3.20;;;14.70;99.90;;;;;;5055631;28;20530;-72
2023/08/14 00:09:21;;;;;;;5.90;3.70;;;14.70;99.90;;;;;;5039780;28;20029;-72
2023/08/14 00:11:47;;;;;;;5.72;3.38;;;14.70;99.90;;;;;;5059535;28;20506;-72
2023/08/14 00:14:12;;;;;;;5.10;3.70;;;14.70;99.90;;;;;;5016267;28;20086;-72
2023/08/14 00:16:38;;;;;;;5.65;3.30;;;14.70;99.90;;;;;;5049783;28;20068;-72
2023/08/14 00:19:04;;;;;;;3.65;3.20;;;14.70;99.90;;;;;;5035084;28;20045;-72
2023/08/14 00:21:30;;;;;;;8.05;3.92;;;14.60;99.90;;;;;;5038222;28;20049;-72
2023/08/14 00:23:55;;;;;;;8.45;4.75;;;14.60;99.90;;;;;;5023575;28;20041;-72
2023/08/14 00:26:21;;;;;;;4.82;3.45;;;14.60;99.90;;;;;;5023110;28;20050;-72
2023/08/14 00:28:47;;;;;;;5.43;3.20;;;14.60;99.90;;;;;;5037010;28;20099;-72
2023/08/14 00:31:13;;;;;;;7.15;3.67;;;14.60;99.90;;;;;;5040022;28;20048;-72
2023/08/14 00:33:39;;;;;;;5.55;3.55;;;14.50;99.90;;;;;;5027615;28;20053;-72
2023/08/14 00:36:08;;;;;;;7.15;4.28;;;14.60;99.90;;;;;;5039402;28;20041;-72
2023/08/14 00:38:33;;;;;;;8.65;3.97;;;14.60;99.90;;;;;;5043366;28;20033;-72
2023/08/14 00:40:59;;;;;;;5.85;4.13;;;14.50;99.90;;;;;;5044075;28;20464;-72
2023/08/14 00:43:25;;;;;;;6.68;3.97;;;14.50;99.90;;;;;;5052788;28;20042;-72
2023/08/14 00:45:55;;;;;;;6.72;3.88;;;14.50;99.90;;;;;;5041776;28;20032;-72
2023/08/14 00:48:22;;;;;;;7.55;4.63;;;14.50;99.90;;;;;;5039224;28;20044;-72
2023/08/14 00:50:47;;;;;;;6.82;5.22;;;14.50;99.90;;;;;;5038859;28;20041;-72
2023/08/14 00:53:14;;;;;;;6.07;4.70;;;14.50;99.90;;;;;;5030441;28;20125;-72
2023/08/14 00:55:40;;;;;;;7.70;4.90;;;14.50;99.90;;;;;;5055271;28;20040;-72
2023/08/14 00:58:07;;;;;;;8.63;5.22;;;14.50;99.90;;;;;;5045158;28;20569;-72
2023/08/14 01:00:34;;;;;;;8.00;4.30;;;14.50;99.90;;;;;;5055352;28;20045;-72
2023/08/14 01:03:01;;;;;;;7.97;4.68;;;14.50;99.90;;;;;;5038966;28;20040;-72
2023/08/14 01:05:27;;;;;;;11.25;4.85;;;14.50;99.90;;;;;;5054642;28;20043;-72
2023/08/14 01:07:52;;;;;;;6.72;4.50;;;14.40;99.90;;;;;;5029965;28;20041;-74
2023/08/14 01:10:19;;;;;;;5.97;4.55;;;14.40;99.90;;;;;;5019001;28;20037;-74
2023/08/14 01:13:15;;;;;;;8.02;4.90;;;14.40;99.90;;;;;;5024615;28;20032;-73
2023/08/14 01:15:46;;;;;;;8.10;5.30;;;14.40;99.90;;;;;;5039773;28;20040;-73
2023/08/14 01:18:16;;;;;;;11.55;6.25;;;14.40;99.90;;;;;;5042271;28;20037;-73
2023/08/14 01:20:54;;;;;;;12.50;7.18;;;14.50;99.90;;;;;;5069787;28;20044;-73
2023/08/14 01:23:35;;;;;;;17.48;6.70;;;14.40;99.90;;;;;;5044854;28;20050;-73
2023/08/14 01:26:02;;;;;;;12.50;5.53;;;14.50;99.90;;;;;;5036495;28;20061;-73
2023/08/14 01:28:28;;;;;;;13.82;7.13;;;14.50;99.90;;;;;;5037493;28;20068;-73
2023/08/14 01:30:54;;;;;;;11.40;6.32;;;14.50;99.90;;;;;;5058767;28;20087;-74
2023/08/14 01:33:20;;;;;;;8.82;6.22;;;14.50;99.90;;;;;;5040469;28;20032;-74
2023/08/14 01:36:02;;;;;;;7.22;5.72;;;14.40;99.90;;;;;;5054097;28;20049;-74
2023/08/14 01:38:31;;;;;;;11.48;6.00;;;14.50;99.90;;;;;;5018076;28;20064;-74
2023/08/14 01:41:06;;;;;;;13.38;6.63;;;14.50;99.90;;;;;;5072103;28;20045;-74
2023/08/14 01:43:39;;;;;;;8.25;6.45;;;14.40;99.90;;;;;;5043719;28;20049;-73
2023/08/14 01:46:08;;;;;;;10.45;6.47;;;14.50;99.90;;;;;;5039251;28;20178;-74
2023/08/14 01:48:37;;;;;;;11.82;6.90;;;14.50;99.90;;;;;;5021004;28;20081;-73
2023/08/14 01:51:02;;;;;;;11.30;7.25;;;14.50;99.90;;;;;;5039630;28;20045;-74
2023/08/14 01:53:28;;;;;;;13.80;7.40;;;14.50;99.90;;;;;;5055284;28;20036;-73
2023/08/14 01:55:54;;;;;;;11.48;9.02;;;14.50;99.90;;;;;;5052175;28;20080;-74
2023/08/14 01:58:19;;;;;;;15.43;9.20;;;14.50;99.90;;;;;;5006142;28;20049;-74
2023/08/14 02:00:45;;;;;;;17.50;8.85;;;14.50;99.90;;;;;;5043232;28;20418;-74
2023/08/14 02:03:11;;;;;;;15.50;10.18;;;14.50;99.90;;;;;;5023791;28;20379;-74
2023/08/14 02:05:37;;;;;;;15.88;9.23;;;14.50;99.90;;;;;;5035604;28;20033;-73
2023/08/14 02:08:02;;;;;;;17.58;10.23;;;14.50;99.90;;;;;;5030941;28;20044;-74
2023/08/14 02:10:28;;;;;;;18.45;10.30;;;14.50;99.90;;;;;;5055397;28;20047;-74
2023/08/14 02:12:54;;;;;;;18.30;10.18;;;14.50;99.90;;;;;;5032514;28;20123;-74
2023/08/14 02:15:20;;;;;;;16.33;9.82;;;14.50;99.90;;;;;;5042245;28;20167;-73
2023/08/14 02:17:46;;;;;;;21.95;10.02;;;14.50;99.90;;;;;;5038863;28;20041;-74
2023/08/14 02:20:12;;;;;;;19.92;11.07;;;14.50;99.90;;;;;;5037333;28;20659;-74
2023/08/14 02:22:37;;;;;;;17.15;10.25;;;14.50;99.90;;;;;;5056492;28;20082;-74
2023/08/14 02:25:03;;;;;;;18.70;12.43;;;14.60;99.90;;;;;;5041942;28;20049;-74
2023/08/14 02:27:29;;;;;;;19.23;11.68;;;14.60;99.90;;;;;;5024539;28;20261;-74
2023/08/14 02:29:55;;;;;;;17.38;12.48;;;14.50;99.90;;;;;;5043968;28;20033;-74
2023/08/14 02:32:21;;;;;;;20.38;12.02;;;14.60;99.90;;;;;;5037757;28;20037;-74
2023/08/14 02:34:49;;;;;;;17.80;11.68;;;14.60;99.90;;;;;;5031171;28;20060;-74
2023/08/14 02:37:17;;;;;;;16.02;10.95;;;14.50;99.90;;;;;;5040297;28;20042;-74
2023/08/14 02:39:43;;;;;;;15.60;11.75;;;14.50;99.90;;;;;;5033627;28;20049;-74
2023/08/14 02:42:09;;;;;;;18.25;12.55;;;14.50;99.90;;;;;;5042594;28;20126;-74
2023/08/14 02:44:36;;;;;;;18.75;11.88;;;14.60;99.90;;;;;;5022259;28;20575;-74
2023/08/14 02:47:03;;;;;;;22.75;11.85;;;14.50;99.90;;;;;;5068310;28;20049;-74
2023/08/14 02:49:28;;;;;;;27.38;13.45;;;14.50;99.90;;;;;;5038013;28;20119;-74
2023/08/14 02:51:54;;;;;;;19.88;12.23;;;14.50;99.90;;;;;;5021987;28;20127;-74
2023/08/14 02:54:20;;;;;;;14.50;10.98;;;14.50;99.90;;;;;;5037572;28;20071;-74
2023/08/14 02:56:47;;;;;;;22.48;13.55;;;14.50;99.90;;;;;;5058162;28;20048;-74
2023/08/14 02:59:13;;;;;;;20.85;13.35;;;14.50;99.90;;;;;;5041190;28;20379;-74
2023/08/14 03:01:38;;;;;;;19.10;12.68;;;14.50;99.90;;;;;;5018818;28;20051;-74
2023/08/14 03:04:05;;;;;;;20.10;12.65;;;14.50;99.90;;;;;;5026680;28;20037;-74
2023/08/14 03:06:31;;;;;;;17.98;11.05;;;14.40;99.90;;;;;;5040875;28;20076;-74
2023/08/14 03:08:58;;;;;;;18.80;11.73;;;14.50;99.90;;;;;;5037235;28;20032;-74
2023/08/14 03:11:23;;;;;;;18.77;12.30;;;14.50;99.90;;;;;;5041583;28;20047;-74
2023/08/14 03:13:49;;;;;;;23.25;12.18;;;14.40;99.90;;;;;;5036211;28;20045;-73
2023/08/14 03:16:16;;;;;;;19.17;12.00;;;14.40;99.90;;;;;;5033744;28;20124;-74
2023/08/14 03:18:42;;;;;;;19.30;11.68;;;14.40;99.90;;;;;;5017645;28;20033;-74
2023/08/14 03:21:08;;;;;;;23.33;12.73;;;14.40;99.90;;;;;;5052670;28;20052;-74
2023/08/14 03:23:34;;;;;;;19.13;12.02;;;14.40;99.90;;;;;;5040450;28;20514;-74
2023/08/14 03:26:01;;;;;;;16.98;11.52;;;14.40;99.90;;;;;;5036338;28;20316;-74
2023/08/14 03:28:27;;;;;;;21.15;12.30;;;14.40;99.90;;;;;;5074837;28;20044;-74
2023/08/14 03:30:52;;;;;;;22.42;12.73;;;14.40;99.90;;;;;;5071377;28;20037;-74
2023/08/14 03:33:18;;;;;;;15.93;11.23;;;14.40;99.90;;;;;;5035327;28;20944;-74
2023/08/14 03:35:44;;;;;;;15.93;11.13;;;14.30;99.90;;;;;;5043295;28;20040;-74
2023/08/14 03:38:10;;;;;;;15.23;10.50;;;14.30;99.90;;;;;;5036655;28;20528;-74
2023/08/14 03:40:38;;;;;;;18.63;11.80;;;14.30;99.90;;;;;;5058069;28;20371;-74
2023/08/14 03:43:04;;;;;;;19.17;11.23;;;14.30;99.90;;;;;;5052298;28;20495;-74
2023/08/14 03:45:30;;;;;;;19.30;11.82;;;14.30;99.90;;;;;;5020039;28;20041;-74
2023/08/14 03:47:56;;;;;;;16.08;11.10;;;14.30;99.90;;;;;;5034304;28;20082;-74
2023/08/14 03:50:22;;;;;;;19.17;11.00;;;14.30;99.90;;;;;;5038690;28;20450;-74
2023/08/14 03:52:50;;;;;;;17.67;11.27;;;14.30;99.90;;;;;;5023267;28;20041;-74
2023/08/14 03:55:16;;;;;;;17.58;10.60;;;14.30;99.90;;;;;;5051838;28;20033;-74
2023/08/14 03:57:42;;;;;;;18.38;10.75;;;14.30;99.90;;;;;;5021155;28;20548;-74
2023/08/14 04:00:08;;;;;;;18.02;11.05;;;14.30;99.90;;;;;;5039555;28;20075;-73
2023/08/14 04:02:34;;;;;;;17.98;10.88;;;14.20;99.90;;;;;;5033340;28;20041;-74
2023/08/14 04:04:59;;;;;;;20.50;11.57;;;14.20;99.90;;;;;;5076769;28;20087;-74
2023/08/14 04:07:25;;;;;;;20.98;11.77;;;14.30;99.90;;;;;;5044568;28;20365;-74
2023/08/14 04:09:51;;;;;;;17.85;12.13;;;14.20;99.90;;;;;;5041585;28;20512;-73
2023/08/14 04:12:16;;;;;;;15.30;11.57;;;14.20;99.90;;;;;;5021957;28;20065;-74
2023/08/14 04:14:53;;;;;;;15.73;10.15;;;14.20;99.90;;;;;;5026480;28;20552;-73
2023/08/14 04:17:19;;;;;;;19.40;10.98;;;14.20;99.90;;;;;;5073763;28;21105;-73
2023/08/14 04:19:45;;;;;;;15.73;11.00;;;14.20;99.90;;;;;;5040987;28;20552;-74
2023/08/14 04:22:14;;;;;;;18.65;10.32;;;14.10;99.90;;;;;;5044739;28;20044;-74
2023/08/14 04:24:39;;;;;;;18.38;10.60;;;14.10;99.90;;;;;;5043881;28;20160;-73
2023/08/14 04:27:05;;;;;;;16.98;10.27;;;14.10;99.90;;;;;;5041031;28;20493;-73
2023/08/14 04:29:31;;;;;;;14.57;11.25;;;14.10;99.90;;;;;;5009730;28;20060;-73
2023/08/14 04:31:57;;;;;;;17.60;10.75;;;14.10;99.90;;;;;;5039866;28;20037;-74
2023/08/14 04:34:22;;;;;;;16.08;10.73;;;14.10;99.90;;;;;;5034964;28;20099;-74
2023/08/14 04:36:48;;;;;;;15.63;11.02;;;14.10;99.90;;;;;;4985756;28;20044;-73
2023/08/14 04:39:15;;;;;;;20.63;10.90;;;14.10;99.90;;;;;;5030287;28;20045;-73
2023/08/14 04:41:40;;;;;;;18.33;11.65;;;14.10;99.90;;;;;;5039593;28;20044;-73
2023/08/14 04:44:06;;;;;;;19.05;11.40;;;14.20;99.90;;;;;;5043500;28;20406;-73
2023/08/14 04:46:37;;;;;;;17.65;11.00;;;14.20;99.90;;;;;;5026612;28;20048;-73
2023/08/14 04:49:03;;;;;;;19.17;11.25;;;14.20;99.90;;;;;;5039767;28;20061;-73
2023/08/14 04:51:30;;;;;;;13.48;10.00;;;14.20;99.90;;;;;;5073306;28;20049;-73
2023/08/14 04:53:56;;;;;;;20.45;11.38;;;14.20;99.90;;;;;;5050498;28;20124;-74
2023/08/14 04:56:22;;;;;;;16.00;10.80;;;14.20;99.90;;;;;;5023574;28;20057;-73
2023/08/14 04:58:48;;;;;;;15.43;11.10;;;14.20;99.90;;;;;;5041549;28;20605;-73
2023/08/14 05:01:14;;;;;;;22.42;12.57;;;14.20;99.90;;;;;;5041702;28;20487;-74
2023/08/14 05:03:40;;;;;;;21.30;12.25;;;14.30;99.90;;;;;;5072104;28;20071;-73
2023/08/14 05:06:06;;;;;;;25.00;12.75;;;14.40;99.90;;;;;;5012458;28;20044;-73
2023/08/14 05:08:35;;;;;;;21.92;12.30;;;14.40;99.90;;;;;;5034432;28;20119;-74
2023/08/14 05:11:00;;;;;;;24.75;13.68;;;14.40;99.90;;;;;;5030080;28;20499;-73
2023/08/14 05:13:26;;;;;;;23.73;13.10;;;14.50;99.90;;;;;;5023315;28;20048;-73
2023/08/14 05:15:52;;;;;;;24.10;12.68;;;14.50;99.90;;;;;;5038604;28;20103;-73
2023/08/14 05:18:18;;;;;;;24.00;13.70;;;14.50;99.90;;;;;;5041655;28;20086;-73
2023/08/14 05:20:48;;;;;;;19.83;13.23;;;14.60;99.90;;;;;;5040038;28;20045;-73
2023/08/14 05:23:15;;;;;;;19.00;12.77;;;14.60;99.90;;;;;;5040058;28;20044;-73
2023/08/14 05:25:42;;;;;;;18.58;12.27;;;14.70;99.90;;;;;;5026964;28;20060;-73
2023/08/14 05:28:08;;;;;;;26.10;13.13;;;14.70;99.90;;;;;;5042093;28;20048;-73
2023/08/14 05:30:34;;;;;;;16.88;12.05;;;14.80;99.90;;;;;;5040607;28;20037;-73
2023/08/14 05:33:00;;;;;;;21.83;13.32;;;14.80;99.90;;;;;;5036753;28;20033;-73
2023/08/14 05:35:26;;;;;;;19.92;13.02;;;14.90;99.90;;;;;;5036676;28;20116;-73
2023/08/14 05:37:55;;;;;;;20.73;12.52;;;14.90;99.90;;;;;;5042146;28;20120;-73
2023/08/14 05:40:27;;;;;;;22.05;13.60;;;15.00;99.90;;;;;;5053828;28;20041;-73
2023/08/14 05:43:06;;;;;;;23.15;15.00;;;15.00;99.90;;;;;;5025062;28;20115;-73
2023/08/14 05:45:33;;;;;;;20.58;12.75;;;15.20;99.90;;;;;;5069158;28;20372;-73
2023/08/14 05:48:00;;;;;;;18.33;12.13;;;15.20;99.90;;;;;;5037921;28;20486;-73
2023/08/14 05:50:27;;;;;;;17.08;12.23;;;15.30;99.90;;;;;;5018654;28;20398;-73
2023/08/14 05:52:55;;;;;;;21.92;13.13;;;15.40;99.90;;;;;;5073396;28;20539;-73
2023/08/14 05:55:21;;;;;;;22.67;12.05;;;15.50;99.90;;;;;;5042148;28;20624;-73
2023/08/14 05:57:47;;;;;;;22.10;12.40;;;15.60;99.90;;;;;;5041141;28;20033;-73
2023/08/14 06:00:14;;;;;;;13.75;10.77;;;15.70;99.90;;;;;;5038989;28;20040;-73
2023/08/14 06:02:39;;;;;;;23.10;11.95;;;15.80;99.90;;;;;;5022468;28;20064;-73
2023/08/14 06:05:05;;;;;;;18.13;11.07;;;15.90;99.90;;;;;;5043151;28;20493;-73
2023/08/14 06:07:31;;;;;;;18.83;10.90;;;15.90;99.90;;;;;;5054451;28;20593;-73
2023/08/14 06:09:57;;;;;;;18.10;10.45;;;16.00;99.90;;;;;;5044138;28;20048;-73
2023/08/14 06:12:22;;;;;;;19.48;10.85;;;16.00;99.90;;;;;;5038942;28;20469;-73
2023/08/14 06:14:48;;;;;;;15.98;9.95;;;16.10;99.90;;;;;;5033600;28;20141;-73
2023/08/14 06:17:14;;;;;;;16.98;9.40;;;16.20;99.90;;;;;;5071180;28;20052;-73
2023/08/14 06:19:40;;;;;;;16.05;9.15;;;16.30;99.90;;;;;;5034366;28;20071;-73
2023/08/14 06:22:05;;;;;;;13.70;9.13;;;16.40;99.90;;;;;;5033680;28;20048;-73
2023/08/14 06:24:31;;;;;;;13.02;9.05;;;16.50;99.90;;;;;;5067083;28;20042;-73
2023/08/14 06:26:57;;;;;;;12.43;7.88;;;16.60;99.90;;;;;;5041561;28;20053;-73
2023/08/14 06:29:23;;;;;;;12.88;8.45;;;16.60;99.90;;;;;;5035720;28;20052;-73
2023/08/14 06:31:48;;;;;;;12.38;6.82;;;16.70;99.90;;;;;;5036031;28;20037;-73
2023/08/14 06:34:16;;;;;;;10.48;7.45;;;16.80;99.90;;;;;;5055854;28;20033;-73
2023/08/14 06:36:42;;;;;;;9.30;7.03;;;16.90;99.90;;;;;;5025338;28;20078;-73
2023/08/14 06:39:08;;;;;;;8.52;6.68;;;17.00;99.90;;;;;;5016387;28;20038;-73
2023/08/14 06:41:34;;;;;;;11.48;6.65;;;17.10;99.90;;;;;;5042732;28;20414;-73
2023/08/14 06:43:59;;;;;;;12.27;6.55;;;17.10;99.90;;;;;;5022369;28;21778;-72
2023/08/14 06:46:25;;;;;;;10.48;5.82;;;17.20;99.90;;;;;;5047233;28;20061;-72
2023/08/14 06:48:51;;;;;;;12.60;6.40;;;17.30;99.90;;;;;;5018754;28;20045;-71
2023/08/14 06:51:17;;;;;;;9.68;5.80;;;17.30;99.90;;;;;;5032586;28;20041;-70
2023/08/14 06:53:42;;;;;;;8.63;6.25;;;17.30;99.90;;;;;;5021007;28;20056;-71
2023/08/14 06:56:08;;;;;;;9.27;5.22;;;17.40;99.90;;;;;;5022935;28;20041;-70
2023/08/14 06:58:34;;;;;;;8.98;5.43;;;17.40;99.90;;;;;;5039616;28;20079;-70
2023/08/14 07:01:00;;;;;;;9.18;5.35;;;17.40;99.90;;;;;;5029470;28;20100;-70
2023/08/14 07:03:26;;;;;;;11.55;5.95;;;17.50;99.90;;;;;;5000211;28;20041;-70
2023/08/14 07:05:51;;;;;;;7.47;5.40;;;17.50;99.90;;;;;;5029693;28;20053;-70
2023/08/14 07:08:17;;;;;;;8.48;5.55;;;17.50;99.90;;;;;;5031015;28;20460;-70
2023/08/14 07:10:43;;;;;;;8.15;5.50;;;17.60;99.90;;;;;;5042376;28;20044;-70
2023/08/14 07:13:10;;;;;;;8.27;5.50;;;17.50;99.90;;;;;;5039443;28;20079;-70
2023/08/14 07:15:36;;;;;;;8.73;5.70;;;17.60;99.90;;;;;;5034555;28;20063;-70
2023/08/14 07:18:02;;;;;;;8.93;5.95;;;17.60;99.90;;;;;;5064105;28;20486;-70
2023/08/14 07:20:27;;;;;;;8.43;5.95;;;17.70;99.90;;;;;;5030108;28;20061;-70
2023/08/14 07:22:54;;;;;;;12.77;7.07;;;17.70;99.90;;;;;;5014385;28;20029;-70
2023/08/14 07:25:20;;;;;;;10.32;6.25;;;17.80;99.90;;;;;;5029912;28;20061;-70
2023/08/14 07:27:45;;;;;;;9.52;5.80;;;17.80;99.90;;;;;;5018980;28;20040;-71
2023/08/14 07:30:11;;;;;;;9.63;6.22;;;17.80;99.90;;;;;;5030343;28;20029;-71
2023/08/14 07:32:37;;;;;;;9.63;5.75;;;17.90;99.90;;;;;;5025412;28;20045;-70
2023/08/14 07:35:03;;;;;;;11.05;5.82;;;17.90;99.90;;;;;;5027511;28;20410;-70
2023/08/14 07:37:29;;;;;;;10.77;6.55;;;18.00;99.90;;;;;;5026292;28;20699;-71
2023/08/14 07:39:55;;;;;;;8.80;5.97;;;18.00;99.90;;;;;;5028154;28;20045;-70
2023/08/14 07:42:20;;;;;;;11.77;6.53;;;18.00;99.90;;;;;;5046212;28;20065;-70
2023/08/14 07:44:46;;;;;;;11.80;6.43;;;18.00;99.90;;;;;;5022905;28;20038;-70
2023/08/14 07:47:12;;;;;;;14.50;6.47;;;18.10;99.90;;;;;;5043203;28;20041;-71
2023/08/14 07:49:38;;;;;;;9.52;6.55;;;18.10;99.90;;;;;;5016152;28;20069;-70
2023/08/14 07:52:05;;;;;;;10.23;6.50;;;18.20;99.90;;;;;;5018862;28;20049;-70
2023/08/14 07:54:31;;;;;;;10.68;5.97;;;18.30;99.90;;;;;;5015372;28;20037;-71
2023/08/14 07:56:57;;;;;;;12.63;6.43;;;18.40;99.90;;;;;;5020910;28;20506;-71
2023/08/14 07:59:23;;;;;;;9.10;5.57;;;18.60;99.90;;;;;;5016113;28;20128;-71
2023/08/14 08:01:49;;;;;;;6.90;5.15;;;18.80;99.90;;;;;;5017780;28;20048;-71
2023/08/14 08:04:15;;;;;;;11.35;4.68;;;19.20;99.90;;;;;;5052797;28;20037;-71
2023/08/14 08:06:40;;;;;;;7.85;5.32;;;19.40;99.90;;;;;;5033523;28;20558;-71
2023/08/14 08:09:07;;;;;;;7.53;4.72;;;19.50;99.90;;;;;;5010980;28;20109;-71
2023/08/14 08:11:33;;;;;;;8.45;4.07;;;19.70;99.90;;;;;;5026522;28;20041;-71
2023/08/14 08:14:05;;;;;;;10.70;4.05;;;19.70;99.90;;;;;;4998767;28;20038;-71
2023/08/14 08:16:36;;;;;;;6.47;3.70;;;19.70;99.90;;;;;;5013167;28;20046;-71
2023/08/14 08:19:05;;;;;;;6.80;3.72;;;19.80;99.90;;;;;;5029631;28;20069;-71
2023/08/14 08:21:32;;;;;;;6.05;3.05;;;20.00;99.90;;;;;;5012493;28;20033;-71
2023/08/14 08:23:58;;;;;;;7.15;2.95;;;20.20;99.90;;;;;;5046926;28;20033;-71
2023/08/14 08:26:25;;;;;;;8.00;3.10;;;20.30;99.90;;;;;;5029143;28;20051;-71
2023/08/14 08:28:51;;;;;;;6.20;3.33;;;20.50;99.90;;;;;;5019979;28;20030;-71
2023/08/14 08:31:17;;;;;;;4.60;3.33;;;20.60;99.90;;;;;;5025215;28;20045;-71
2023/08/14 08:33:43;;;;;;;3.47;2.60;;;20.70;99.90;;;;;;5023792;28;20474;-71
2023/08/14 08:36:08;;;;;;;4.72;2.50;;;20.90;99.90;;;;;;5018699;28;20446;-71
2023/08/14 08:38:34;;;;;;;3.30;2.50;;;21.00;99.90;;;;;;5023662;28;20073;-71
2023/08/14 08:41:02;;;;;;;6.35;2.90;;;21.10;99.90;;;;;;5021340;28;20473;-71
2023/08/14 08:43:28;;;;;;;4.68;2.63;;;21.20;99.90;;;;;;5018488;28;20033;-71
2023/08/14 08:45:58;;;;;;;5.40;2.22;;;21.40;99.90;;;;;;5015588;28;20312;-71
2023/08/14 08:48:24;;;;;;;5.50;2.50;;;21.50;99.90;;;;;;5016021;28;20037;-71
2023/08/14 08:50:55;;;;;;;5.00;2.53;;;21.70;99.90;;;;;;5030439;28;20417;-72
2023/08/14 08:53:21;;;;;;;3.72;1.83;;;21.90;99.90;;;;;;5027453;28;20429;-71
2023/08/14 08:55:47;;;;;;;4.63;2.10;;;22.00;99.90;;;;;;5014387;28;20041;-71
2023/08/14 08:58:18;;;;;;;3.42;2.33;;;22.20;99.90;;;;;;5011368;28;20167;-71
2023/08/14 09:00:44;;;;;;;4.05;2.17;;;22.30;99.90;;;;;;5032794;28;20143;-77
2023/08/14 09:03:10;;;;;;;2.60;2.40;;;22.50;99.90;;;;;;4998531;28;20069;-77
2023/08/14 09:05:36;;;;;;;5.95;2.05;;;22.60;99.90;;;;;;5016230;28;20045;-77
2023/08/14 09:08:03;;;;;;;4.20;1.92;;;22.70;99.90;;;;;;5027860;28;20119;-74
2023/08/14 09:10:29;;;;;;;3.35;2.10;;;22.70;99.90;;;;;;5015978;28;20509;-76
2023/08/14 09:12:56;;;;;;;4.15;2.22;;;22.80;99.90;;;;;;5058410;28;20109;-75
2023/08/14 09:15:25;;;;;;;5.18;2.20;;;22.90;99.90;;;;;;5038017;28;20033;-75
2023/08/14 09:17:54;;;;;;;2.20;1.95;;;23.10;99.90;;;;;;5028554;28;20160;-77
2023/08/14 09:20:20;;;;;;;7.30;3.25;;;23.20;99.90;;;;;;5016087;28;20073;-77
2023/08/14 09:22:47;;;;;;;5.22;2.47;;;23.20;99.90;;;;;;5024024;28;20049;-76
2023/08/14 09:25:14;;;;;;;4.40;2.53;;;23.30;99.90;;;;;;5021384;28;20033;-75
2023/08/14 09:27:41;;;;;;;5.18;2.38;;;23.50;99.90;;;;;;5023335;28;20051;-75
2023/08/14 09:30:07;;;;;;;6.65;2.22;;;23.60;99.90;;;;;;5007404;28;20053;-75
2023/08/14 09:32:35;;;;;;;3.70;2.10;;;23.60;99.90;;;;;;5037201;28;20095;-75
2023/08/14 09:35:02;;;;;;;5.22;2.40;;;23.60;99.90;;;;;;5016814;28;20041;-78
2023/08/14 09:37:28;;;;;;;8.13;2.47;;;23.70;99.90;;;;;;5007647;28;20474;-79
2023/08/14 09:40:17;;;;;;;7.70;2.08;;;23.70;99.90;;;;;;5019999;28;20052;-77
2023/08/14 09:42:43;;;;;;;5.55;2.22;;;23.70;99.90;;;;;;5055282;28;20542;-77
2023/08/14 09:45:12;;;;;;;7.03;2.85;;;23.70;99.90;;;;;;5017261;28;20407;-76
2023/08/14 09:47:39;;;;;;;3.05;2.10;;;23.70;99.90;;;;;;5022837;28;20038;-77
2023/08/14 09:50:06;;;;;;;5.18;2.47;;;23.80;99.90;;;;;;5017664;28;20042;-78
2023/08/14 09:52:32;;;;;;;4.97;2.28;;;23.90;99.90;;;;;;5029818;28;20041;-78
2023/08/14 09:55:00;;;;;;;3.30;2.20;;;24.10;99.90;;;;;;5017620;28;20044;-78
2023/08/14 09:57:26;;;;;;;4.65;2.00;;;24.10;99.90;;;;;;5016283;28;20034;-75
2023/08/14 09:59:52;;;;;;;4.85;1.95;;;24.00;99.90;;;;;;5019649;28;20042;-78
2023/08/14 10:02:22;;;;;;;6.43;2.08;;;23.90;99.90;;;;;;5023760;28;20560;-78
2023/08/14 10:04:48;;;;;;;4.85;2.40;;;23.90;99.90;;;;;;5017462;28;20045;-77
2023/08/14 10:07:15;;;;;;;5.05;2.17;;;23.90;99.90;;;;;;5016702;28;20391;-78
2023/08/14 10:09:54;;;;;;;4.55;1.88;;;23.80;99.90;;;;;;5017835;28;20041;-76
2023/08/14 10:12:35;;;;;;;4.65;2.15;;;23.70;99.90;;;;;;5020991;28;20042;-76
2023/08/14 10:15:14;;;;;;;4.35;1.90;;;23.90;99.90;;;;;;5048576;28;20113;-76
2023/08/14 10:17:56;;;;;;;4.28;2.28;;;24.10;99.90;;;;;;5002417;28;20042;-87
2023/08/14 10:20:23;;;;;;;;;;;24.30;99.90;;;;;;5025267;28;20129;-79
2023/08/14 10:22:52;;;;;;;3.95;2.10;;;24.50;99.90;;;;;;5017467;28;19920;-80
2023/08/14 10:25:19;;;;;;;3.67;1.63;;;24.60;99.90;;;;;;5037853;28;20508;-80
2023/08/14 10:27:46;;;;;;;3.30;1.83;;;24.90;99.90;;;;;;5016944;28;20060;-80
2023/08/14 10:30:13;;;;;;;3.38;1.85;;;24.90;99.90;;;;;;5034866;28;20377;-80
2023/08/14 10:32:40;;;;;;;4.63;1.90;;;25.00;99.90;;;;;;5047933;28;20052;-80
2023/08/14 10:35:07;;;;;;;5.82;2.08;;;25.20;99.90;;;;;;5036354;28;20056;-81
2023/08/14 10:37:48;;;;;;;2.65;1.73;;;25.30;99.90;;;;;;5012633;28;20379;-80
2023/08/14 10:40:24;;;;;;;4.85;1.92;;;25.40;99.90;;;;;;5029216;28;20037;-80
2023/08/14 10:42:57;;;;;;;3.78;1.50;;;25.50;99.90;;;;;;5007640;28;20045;-72
2023/08/14 10:45:25;;;;;;;4.35;1.73;;;25.50;99.90;;;;;;5008429;28;20091;-81
2023/08/14 10:47:53;;;;;;;3.88;1.90;;;25.60;99.90;;;;;;5037038;28;20490;-80
2023/08/14 10:50:27;;;;;;;6.40;2.15;;;25.70;99.90;;;;;;5016494;28;20034;-79
2023/08/14 10:52:54;;;;;;;3.42;1.58;;;25.70;99.90;;;;;;5013894;28;20071;-80
2023/08/14 10:55:37;;;;;;;5.07;1.73;;;25.80;99.90;;;;;;5023766;28;20077;-71
2023/08/14 10:58:28;;;;;;;4.07;2.10;;;25.90;99.90;;;;;;5042147;28;20068;-71
2023/08/14 11:00:55;;;;;;;5.63;1.60;;;26.00;99.90;;;;;;5047445;28;20055;-71
2023/08/14 11:03:20;;;;;;;10.43;2.22;;;26.10;99.90;;;;;;5031542;28;20046;-71
2023/08/14 11:05:46;;;;;;;3.42;1.90;;;25.90;99.90;;;;;;5030056;28;20394;-70
2023/08/14 11:08:13;;;;;;;3.50;2.08;;;25.80;99.90;;;;;;5032725;28;20045;-70
2023/08/14 11:10:41;;;;;;;6.05;1.77;;;25.60;99.70;;;;;;5046169;28;20038;-70
2023/08/14 11:13:08;;;;;;;7.22;2.15;;;25.40;98.30;;;;;;5029870;28;20095;-70
2023/08/14 11:15:39;;;;;;;3.88;1.70;;;25.30;99.90;;;;;;5038072;28;20044;-71
2023/08/14 11:18:09;;;;;;;9.18;2.13;;;25.30;99.90;;;;;;5063909;28;20045;-71
2023/08/14 11:20:41;;;;;;;4.07;1.88;;;25.50;99.90;;;;;;5041103;28;20045;-70
2023/08/14 11:23:07;;;;;;;5.22;2.05;;;25.60;99.90;;;;;;5022846;28;20064;-70
2023/08/14 11:25:34;;;;;;;2.13;1.55;;;25.90;99.90;;;;;;5021048;28;20049;-69
2023/08/14 11:28:00;;;;;;;4.82;1.83;;;26.10;99.90;;;;;;5041359;28;20501;-69
2023/08/14 11:30:30;;;;;;;5.65;1.73;;;26.40;99.90;;;;;;5010161;28;20135;-69
2023/08/14 11:32:56;;;;;;;5.90;2.40;;;26.40;99.90;;;;;;5028060;28;20033;-69
2023/08/14 11:35:25;;;;;;;3.47;1.73;;;26.50;99.90;;;;;;5058864;28;20038;-69
2023/08/14 11:37:50;;;;;;;4.55;2.08;;;26.30;99.90;;;;;;5014794;28;20045;-69
2023/08/14 11:40:16;;;;;;;4.90;1.83;;;26.20;99.90;;;;;;5020322;28;20120;-69
2023/08/14 11:42:43;;;;;;;6.43;2.00;;;26.20;99.90;;;;;;5057480;28;20038;-69
2023/08/14 11:45:10;;;;;;;3.65;1.80;;;26.30;99.90;;;;;;5016919;28;20465;-69
2023/08/14 11:47:47;;;;;;;4.10;2.00;;;26.20;99.80;;;;;;5024203;28;20037;-69
2023/08/14 11:50:13;;;;;;;6.35;2.30;;;26.20;99.90;;;;;;5030628;28;20037;-70
2023/08/14 11:52:40;;;;;;;3.00;1.58;;;26.50;99.60;;;;;;5014064;28;20417;-69
2023/08/14 11:55:06;;;;;;;4.53;2.00;;;26.60;99.80;;;;;;5017358;28;20100;-70
2023/08/14 11:57:33;;;;;;;4.70;1.92;;;26.60;99.80;;;;;;5040928;28;20037;-70
2023/08/14 12:00:00;;;;;;;4.38;2.20;;;26.60;99.70;;;;;;5055765;28;20041;-69
2023/08/14 12:02:27;;;;;;;4.63;1.90;;;26.30;99.20;;;;;;5030000;28;20037;-70
2023/08/14 12:05:00;;;;;;;4.40;1.92;;;26.10;99.80;;;;;;5030686;28;20095;-70
2023/08/14 12:07:26;;;;;;;3.30;1.88;;;25.80;99.70;;;;;;5041680;28;20450;-70
2023/08/14 12:09:56;;;;;;;5.43;2.30;;;25.80;99.90;;;;;;5029292;28;20061;-69
2023/08/14 12:12:24;;;;;;;2.85;1.70;;;25.70;99.90;;;;;;5037119;28;20045;-69
2023/08/14 12:14:51;;;;;;;3.85;2.05;;;25.50;99.90;;;;;;5033725;28;20133;-69
2023/08/14 12:17:18;;;;;;;4.07;1.92;;;25.40;99.90;;;;;;5033550;28;20056;-70
2023/08/14 12:19:57;;;;;;;3.33;1.83;;;25.20;99.90;;;;;;5030247;28;20037;-70
2023/08/14 12:22:27;;;;;;;5.72;2.17;;;25.20;99.90;;;;;;5032782;28;20045;-68
2023/08/14 12:24:54;;;;;;;4.10;1.70;;;25.40;99.90;;;;;;5068135;28;20041;-69
2023/08/14 12:27:23;;;;;;;4.20;2.42;;;25.60;99.90;;;;;;5031528;28;20087;-69
2023/08/14 12:29:50;;;;;;;2.53;1.70;;;25.90;99.90;;;;;;5034467;28;20044;-68
2023/08/14 12:32:16;;;;;;;3.97;1.80;;;26.00;99.90;;;;;;5033724;28;20063;-68
2023/08/14 12:34:42;;;;;;;4.20;1.77;;;26.00;99.90;;;;;;5017423;28;20576;-68
2023/08/14 12:37:12;;;;;;;2.22;1.58;;;25.80;99.90;;;;;;5050313;28;20074;-69
2023/08/14 12:39:38;;;;;;;3.55;2.13;;;25.60;99.90;;;;;;5033615;28;20108;-69